Flight Track Log - Related Links

Times and Time Zones

All times are in EDT time to prevent confusion due to time zone crossing. See the EJA982 flight status page for this flight to view local times or setup timezone preferences in your user account.

Time Position Orientation Groundspeed Altitude Reporting Facility
EDT Latitude Longitude Course Direction KTS MPH feet Rate Location/Type
Sat 03:27:54 PM 36.6000 -121.8667 284° West 180 207 1,700  Level Northern Cal TRACON
Sat 03:28:54 PM 36.6167 -121.9500 284° West 240 276 4,400 2,750 Climbing Northern Cal TRACON
Sat 03:29:54 PM 36.5500 -121.9833 202° Southwest 304 350 7,200 2,800 Climbing Northern Cal TRACON
Sat 03:30:54 PM 36.5167 -121.9167 122° Southeast 304 350 10,000 2,224 Climbing Northern Cal TRACON
Sat 03:31:50 PM 36.4633 -121.8450 133° Southeast 313 360 11,500 1,525 Climbing Oakland Center
Sat 03:32:52 PM 36.3986 -121.7381 127° Southeast 357 411 13,000 1,902 Climbing Oakland Center
Sat 03:33:53 PM 36.3122 -121.6064 129° Southeast 394 453 15,400 2,146 Climbing Oakland Center
Sat 03:34:55 PM 36.2392 -121.4925 128° Southeast 411 473 17,400 1,951 Climbing Oakland Center
Sat 03:35:56 PM 36.1667 -121.3769 128° Southeast 422 486 19,400 1,756 Climbing Oakland Center
Sat 03:36:58 PM 36.0914 -121.2636 129° Southeast 425 489 21,000 780 Climbing Oakland Center
Sat 03:37:59 PM 36.0114 -121.1417 129° Southeast 442 509 21,000  Level Oakland Center
Sat 03:39:00 PM 35.9261 -121.0125 129° Southeast 467 537 21,000  Level Oakland Center
Sat 03:40:02 PM 35.8439 -120.8869 129° Southeast 472 543 21,000  Level Oakland Center
Sat 03:41:03 PM 35.7622 -120.7622 129° Southeast 471 542 21,000  Level Oakland Center
Sat 03:42:05 PM 35.6633 -120.6142 129° Southeast 469 540 21,000  Level Oakland Center
Sat 03:42:53 PM 35.6081 -120.5444 134° Southeast 467 537 21,000  Level Los Angeles Center
Sat 03:43:55 PM 35.5200 -120.4283 133° Southeast 464 534 21,000  Level Los Angeles Center
Sat 03:44:57 PM 35.4144 -120.2878 133° Southeast 464 534 21,000  Level Los Angeles Center
Sat 03:45:59 PM 35.3256 -120.1689 132° Southeast 470 541 21,000  Level Los Angeles Center
Sat 03:47:01 PM 35.2317 -120.0461 133° Southeast 465 535 21,000  Level Los Angeles Center
Sat 03:48:03 PM 35.1428 -119.9294 133° Southeast 467 537 21,000  Level Los Angeles Center
Sat 03:49:05 PM 35.0550 -119.8133 133° Southeast 466 536 21,000  Level Los Angeles Center
Sat 03:50:07 PM 34.9683 -119.6956 132° Southeast 466 536 21,000  Level Los Angeles Center
Sat 03:51:09 PM 34.8814 -119.5781 132° Southeast 467 537 21,000 -774 Level Los Angeles Center
Sat 03:52:11 PM 34.7767 -119.4364 132° Southeast 469 540 19,400 -1,935 Descending Los Angeles Center
Sat 03:53:13 PM 34.6903 -119.3200 132° Southeast 466 536 17,000 -2,274 Descending Los Angeles Center
Sat 03:54:15 PM 34.6047 -119.2103 133° Southeast 458 527 14,700 -2,177 Descending Los Angeles Center
Sat 03:55:17 PM 34.5258 -119.1061 133° Southeast 424 488 12,500 -1,935 Descending Los Angeles Center
Sat 03:56:19 PM 34.4608 -119.0206 133° Southeast 343 395 10,700 -1,548 Descending Los Angeles Center
Sat 03:57:21 PM 34.4056 -118.9464 132° Southeast 297 342 9,300 -1,584 Descending Los Angeles Center
Sat 03:58:24 PM 34.3456 -118.8536 128° Southeast 290 334 7,400 -1,104 Descending Los Angeles Center
Sat 03:59:26 PM 34.3192 -118.7706 111° Southeast 261 300 7,000 -194 Descending Los Angeles Center
Sat 04:00:28 PM 34.2917 -118.6889 112° Southeast 262 302 7,000  Level Los Angeles Center
Sat 04:01:30 PM 34.2622 -118.6033 113° Southeast 273 314 7,000 -48 Level Los Angeles Center
Sat 04:02:32 PM 34.2336 -118.5217 113° Southeast 266 306 6,900 -629 Descending Los Angeles Center
Sat 04:03:34 PM 34.2097 -118.4483 111° Southeast 237 273 5,700 -919 Descending Los Angeles Center
Sat 04:04:36 PM 34.1858 -118.3658 109° East 219 252 5,000 -242 Descending Los Angeles Center
Sat 04:05:38 PM 34.1631 -118.3006 113° Southeast 214 246 5,200 -484 Climbing Los Angeles Center
Sat 04:06:40 PM 34.1150 -118.3256 203° Southwest 213 245 4,000 -1,113 Descending Los Angeles Center
Sat 04:07:42 PM 34.0828 -118.3644 225° Southwest 176 203 2,900 -1,113 Descending Los Angeles Center
Sat 04:08:44 PM 34.0553 -118.4022 229° Southwest 159 183 1,700 -1,113 Descending Los Angeles Center
Sat 04:09:46 PM 34.0306 -118.4347 227° Southwest 146 168 600 -677 Descending Los Angeles Center
Sat 04:10:48 PM 34.0022 -118.4708 227° Southwest 140 161 300 -290 Descending Los Angeles Center
Sat 04:12:00 PM 34.0000 -118.4500 180° South  Level FlightAware Approximate

Login

Don't have an account? Register now (free) for customized features, flight alerts, and more!